sensor_id;sensor_type;location;lat;lon;timestamp;temperature;humidity
43671;DHT22;29267;50.906;7.248;2023-04-08T00:00:14;8.10;99.90
43671;DHT22;29267;50.906;7.248;2023-04-08T00:02:39;8.10;99.90
43671;DHT22;29267;50.906;7.248;2023-04-08T00:05:06;8.20;99.90
43671;DHT22;29267;50.906;7.248;2023-04-08T00:07:32;8.20;99.90
43671;DHT22;29267;50.906;7.248;2023-04-08T00:09:58;8.10;99.90
43671;DHT22;29267;50.906;7.248;2023-04-08T00:12:23;8.10;99.90
43671;DHT22;29267;50.906;7.248;2023-04-08T00:14:49;8.10;99.90
43671;DHT22;29267;50.906;7.248;2023-04-08T00:17:14;8.10;99.90
43671;DHT22;29267;50.906;7.248;2023-04-08T00:19:41;8.10;99.90
43671;DHT22;29267;50.906;7.248;2023-04-08T00:22:06;8.10;99.90
43671;DHT22;29267;50.906;7.248;2023-04-08T00:24:32;8.20;99.90
43671;DHT22;29267;50.906;7.248;2023-04-08T00:26:58;8.20;99.90
43671;DHT22;29267;50.906;7.248;2023-04-08T00:29:24;8.10;99.90
43671;DHT22;29267;50.906;7.248;2023-04-08T00:31:49;8.10;99.90
43671;DHT22;29267;50.906;7.248;2023-04-08T00:34:15;8.10;99.90
43671;DHT22;29267;50.906;7.248;2023-04-08T00:36:41;8.10;99.90
43671;DHT22;29267;50.906;7.248;2023-04-08T00:39:07;8.10;99.90
43671;DHT22;29267;50.906;7.248;2023-04-08T00:41:33;8.10;99.90
43671;DHT22;29267;50.906;7.248;2023-04-08T00:44:00;8.10;99.90
43671;DHT22;29267;50.906;7.248;2023-04-08T00:46:26;8.10;99.90
43671;DHT22;29267;50.906;7.248;2023-04-08T00:48:53;8.10;99.90
43671;DHT22;29267;50.906;7.248;2023-04-08T00:51:19;8.00;99.90
43671;DHT22;29267;50.906;7.248;2023-04-08T00:53:45;8.10;99.90
43671;DHT22;29267;50.906;7.248;2023-04-08T00:56:11;8.10;99.90
43671;DHT22;29267;50.906;7.248;2023-04-08T00:58:37;8.10;99.90
43671;DHT22;29267;50.906;7.248;2023-04-08T01:01:08;8.10;99.90
43671;DHT22;29267;50.906;7.248;2023-04-08T01:04:05;8.10;99.90
43671;DHT22;29267;50.906;7.248;2023-04-08T01:06:48;8.10;99.90
43671;DHT22;29267;50.906;7.248;2023-04-08T01:09:19;8.10;99.90
43671;DHT22;29267;50.906;7.248;2023-04-08T01:11:48;8.10;99.90
43671;DHT22;29267;50.906;7.248;2023-04-08T01:14:18;8.10;99.90
43671;DHT22;29267;50.906;7.248;2023-04-08T01:16:45;8.10;99.90
43671;DHT22;29267;50.906;7.248;2023-04-08T01:19:21;8.10;99.90
43671;DHT22;29267;50.906;7.248;2023-04-08T01:21:49;8.10;99.90
43671;DHT22;29267;50.906;7.248;2023-04-08T01:24:41;8.10;99.90
43671;DHT22;29267;50.906;7.248;2023-04-08T01:27:09;8.20;99.90
43671;DHT22;29267;50.906;7.248;2023-04-08T01:29:36;8.20;99.90
43671;DHT22;29267;50.906;7.248;2023-04-08T01:32:03;8.20;99.90
43671;DHT22;29267;50.906;7.248;2023-04-08T01:34:30;8.20;99.90
43671;DHT22;29267;50.906;7.248;2023-04-08T01:36:57;8.20;99.90
43671;DHT22;29267;50.906;7.248;2023-04-08T01:39:23;8.20;99.90
43671;DHT22;29267;50.906;7.248;2023-04-08T01:41:52;8.20;99.90
43671;DHT22;29267;50.906;7.248;2023-04-08T01:44:20;8.20;99.90
43671;DHT22;29267;50.906;7.248;2023-04-08T01:46:47;8.20;99.90
43671;DHT22;29267;50.906;7.248;2023-04-08T01:49:14;8.20;99.90
43671;DHT22;29267;50.906;7.248;2023-04-08T01:51:40;8.20;99.90
43671;DHT22;29267;50.906;7.248;2023-04-08T01:54:06;8.20;99.90
43671;DHT22;29267;50.906;7.248;2023-04-08T01:56:36;8.20;99.90
43671;DHT22;29267;50.906;7.248;2023-04-08T01:59:07;8.20;99.90
43671;DHT22;29267;50.906;7.248;2023-04-08T02:01:34;8.20;99.90
43671;DHT22;29267;50.906;7.248;2023-04-08T02:04:01;8.20;99.90
43671;DHT22;29267;50.906;7.248;2023-04-08T02:06:27;8.20;99.90
43671;DHT22;29267;50.906;7.248;2023-04-08T02:08:54;8.20;99.90
43671;DHT22;29267;50.906;7.248;2023-04-08T02:11:20;8.20;99.90
43671;DHT22;29267;50.906;7.248;2023-04-08T02:13:46;8.20;99.90
43671;DHT22;29267;50.906;7.248;2023-04-08T02:16:22;8.20;99.90
43671;DHT22;29267;50.906;7.248;2023-04-08T02:22:03;8.20;99.90
43671;DHT22;29267;50.906;7.248;2023-04-08T02:24:31;8.20;99.90
43671;DHT22;29267;50.906;7.248;2023-04-08T02:26:58;8.20;99.90
43671;DHT22;29267;50.906;7.248;2023-04-08T02:29:25;8.20;99.90
43671;DHT22;29267;50.906;7.248;2023-04-08T02:31:54;8.20;99.90
43671;DHT22;29267;50.906;7.248;2023-04-08T02:34:21;8.20;99.90
43671;DHT22;29267;50.906;7.248;2023-04-08T02:36:48;8.20;99.90
43671;DHT22;29267;50.906;7.248;2023-04-08T02:39:15;8.10;99.90
43671;DHT22;29267;50.906;7.248;2023-04-08T02:41:41;8.20;99.90
43671;DHT22;29267;50.906;7.248;2023-04-08T02:44:07;8.20;99.90
43671;DHT22;29267;50.906;7.248;2023-04-08T02:46:33;8.30;99.90
43671;DHT22;29267;50.906;7.248;2023-04-08T02:48:59;8.20;99.90
43671;DHT22;29267;50.906;7.248;2023-04-08T02:51:24;8.20;99.90
43671;DHT22;29267;50.906;7.248;2023-04-08T02:53:50;8.20;99.90
43671;DHT22;29267;50.906;7.248;2023-04-08T02:56:16;8.10;99.90
43671;DHT22;29267;50.906;7.248;2023-04-08T02:58:41;8.10;99.90
43671;DHT22;29267;50.906;7.248;2023-04-08T03:01:07;8.10;99.90
43671;DHT22;29267;50.906;7.248;2023-04-08T03:03:33;8.00;99.90
43671;DHT22;29267;50.906;7.248;2023-04-08T03:05:58;7.90;99.90
43671;DHT22;29267;50.906;7.248;2023-04-08T03:08:24;7.90;99.90
43671;DHT22;29267;50.906;7.248;2023-04-08T03:10:50;7.90;99.90
43671;DHT22;29267;50.906;7.248;2023-04-08T03:13:16;7.80;99.90
43671;DHT22;29267;50.906;7.248;2023-04-08T03:15:42;7.70;99.90
43671;DHT22;29267;50.906;7.248;2023-04-08T03:18:08;7.80;99.90
43671;DHT22;29267;50.906;7.248;2023-04-08T03:20:33;7.70;99.90
43671;DHT22;29267;50.906;7.248;2023-04-08T03:22:59;7.70;99.90
43671;DHT22;29267;50.906;7.248;2023-04-08T03:25:24;7.80;99.90
43671;DHT22;29267;50.906;7.248;2023-04-08T03:27:50;7.80;99.90
43671;DHT22;29267;50.906;7.248;2023-04-08T03:30:16;7.80;99.90
43671;DHT22;29267;50.906;7.248;2023-04-08T03:32:41;7.70;99.90
43671;DHT22;29267;50.906;7.248;2023-04-08T03:35:07;7.70;99.90
43671;DHT22;29267;50.906;7.248;2023-04-08T03:37:33;7.60;99.90
43671;DHT22;29267;50.906;7.248;2023-04-08T03:39:59;7.50;99.90
43671;DHT22;29267;50.906;7.248;2023-04-08T03:42:24;7.40;99.90
43671;DHT22;29267;50.906;7.248;2023-04-08T03:44:50;7.40;99.90
43671;DHT22;29267;50.906;7.248;2023-04-08T03:47:16;7.30;99.90
43671;DHT22;29267;50.906;7.248;2023-04-08T03:49:41;7.20;99.90
43671;DHT22;29267;50.906;7.248;2023-04-08T03:52:07;7.20;99.90
43671;DHT22;29267;50.906;7.248;2023-04-08T03:54:33;7.10;99.90
43671;DHT22;29267;50.906;7.248;2023-04-08T03:56:58;7.10;99.90
43671;DHT22;29267;50.906;7.248;2023-04-08T03:59:24;7.10;99.90
43671;DHT22;29267;50.906;7.248;2023-04-08T04:01:50;7.00;99.90
43671;DHT22;29267;50.906;7.248;2023-04-08T04:04:16;7.00;99.90
43671;DHT22;29267;50.906;7.248;2023-04-08T04:06:42;7.00;99.90
43671;DHT22;29267;50.906;7.248;2023-04-08T04:09:07;7.00;99.90
43671;DHT22;29267;50.906;7.248;2023-04-08T04:11:33;7.00;99.90
43671;DHT22;29267;50.906;7.248;2023-04-08T04:14:00;7.00;99.90
43671;DHT22;29267;50.906;7.248;2023-04-08T04:16:25;7.00;99.90
43671;DHT22;29267;50.906;7.248;2023-04-08T04:18:51;7.00;99.90
43671;DHT22;29267;50.906;7.248;2023-04-08T04:21:17;6.90;99.90
43671;DHT22;29267;50.906;7.248;2023-04-08T04:23:43;6.80;99.90
43671;DHT22;29267;50.906;7.248;2023-04-08T04:26:09;6.70;99.90
43671;DHT22;29267;50.906;7.248;2023-04-08T04:28:35;6.60;99.90
43671;DHT22;29267;50.906;7.248;2023-04-08T04:31:01;6.40;99.90
43671;DHT22;29267;50.906;7.248;2023-04-08T04:33:27;6.30;99.90
43671;DHT22;29267;50.906;7.248;2023-04-08T04:35:52;6.20;99.90
43671;DHT22;29267;50.906;7.248;2023-04-08T04:38:18;6.10;99.90
43671;DHT22;29267;50.906;7.248;2023-04-08T04:40:43;6.00;99.90
43671;DHT22;29267;50.906;7.248;2023-04-08T04:43:09;5.90;99.90
43671;DHT22;29267;50.906;7.248;2023-04-08T04:45:35;5.80;99.90
43671;DHT22;29267;50.906;7.248;2023-04-08T04:48:01;5.80;99.90
43671;DHT22;29267;50.906;7.248;2023-04-08T04:50:28;5.70;99.90
43671;DHT22;29267;50.906;7.248;2023-04-08T04:52:53;5.70;99.90
43671;DHT22;29267;50.906;7.248;2023-04-08T04:55:19;5.80;99.90
43671;DHT22;29267;50.906;7.248;2023-04-08T04:57:49;5.80;99.90
43671;DHT22;29267;50.906;7.248;2023-04-08T05:00:15;5.80;99.90
43671;DHT22;29267;50.906;7.248;2023-04-08T05:02:41;5.70;99.90
43671;DHT22;29267;50.906;7.248;2023-04-08T05:05:07;5.70;99.90
43671;DHT22;29267;50.906;7.248;2023-04-08T05:07:37;5.70;99.90
43671;DHT22;29267;50.906;7.248;2023-04-08T05:10:03;5.80;99.90
43671;DHT22;29267;50.906;7.248;2023-04-08T05:12:29;6.00;99.90
43671;DHT22;29267;50.906;7.248;2023-04-08T05:14:57;6.10;99.90
43671;DHT22;29267;50.906;7.248;2023-04-08T05:17:22;6.20;99.90
43671;DHT22;29267;50.906;7.248;2023-04-08T05:19:48;6.30;99.90
43671;DHT22;29267;50.906;7.248;2023-04-08T05:22:14;6.40;99.90
43671;DHT22;29267;50.906;7.248;2023-04-08T05:24:39;6.40;99.90
43671;DHT22;29267;50.906;7.248;2023-04-08T05:27:05;6.40;99.90
43671;DHT22;29267;50.906;7.248;2023-04-08T05:29:30;6.40;99.90
43671;DHT22;29267;50.906;7.248;2023-04-08T05:31:56;6.30;99.90
43671;DHT22;29267;50.906;7.248;2023-04-08T05:34:22;6.30;99.90
43671;DHT22;29267;50.906;7.248;2023-04-08T05:36:50;6.20;99.90
43671;DHT22;29267;50.906;7.248;2023-04-08T05:39:17;6.20;99.90
43671;DHT22;29267;50.906;7.248;2023-04-08T05:41:43;6.20;99.90
43671;DHT22;29267;50.906;7.248;2023-04-08T05:44:09;6.20;99.90
43671;DHT22;29267;50.906;7.248;2023-04-08T05:46:36;6.10;99.90
43671;DHT22;29267;50.906;7.248;2023-04-08T05:49:02;6.10;99.90
43671;DHT22;29267;50.906;7.248;2023-04-08T05:51:28;6.10;99.90
43671;DHT22;29267;50.906;7.248;2023-04-08T05:53:53;6.10;99.90
43671;DHT22;29267;50.906;7.248;2023-04-08T05:56:19;6.20;99.90
43671;DHT22;29267;50.906;7.248;2023-04-08T05:58:45;6.30;99.90
43671;DHT22;29267;50.906;7.248;2023-04-08T06:01:11;6.30;99.90
43671;DHT22;29267;50.906;7.248;2023-04-08T06:03:36;6.40;99.90
43671;DHT22;29267;50.906;7.248;2023-04-08T06:06:02;6.40;99.90
43671;DHT22;29267;50.906;7.248;2023-04-08T06:08:27;6.50;99.90
43671;DHT22;29267;50.906;7.248;2023-04-08T06:10:53;6.60;99.90
43671;DHT22;29267;50.906;7.248;2023-04-08T06:13:18;6.60;99.90
43671;DHT22;29267;50.906;7.248;2023-04-08T06:15:46;6.70;99.90
43671;DHT22;29267;50.906;7.248;2023-04-08T06:18:14;6.80;99.90
43671;DHT22;29267;50.906;7.248;2023-04-08T06:20:40;6.80;99.90
43671;DHT22;29267;50.906;7.248;2023-04-08T06:23:05;6.80;99.90
43671;DHT22;29267;50.906;7.248;2023-04-08T06:25:31;6.90;99.90
43671;DHT22;29267;50.906;7.248;2023-04-08T06:27:57;7.00;99.90
43671;DHT22;29267;50.906;7.248;2023-04-08T06:30:22;7.20;99.90
43671;DHT22;29267;50.906;7.248;2023-04-08T06:32:48;7.30;99.90
43671;DHT22;29267;50.906;7.248;2023-04-08T06:35:14;7.50;99.90
43671;DHT22;29267;50.906;7.248;2023-04-08T06:37:40;7.70;99.90
43671;DHT22;29267;50.906;7.248;2023-04-08T06:40:06;7.90;99.90
43671;DHT22;29267;50.906;7.248;2023-04-08T06:42:31;7.90;99.90
43671;DHT22;29267;50.906;7.248;2023-04-08T06:44:57;7.80;99.90
43671;DHT22;29267;50.906;7.248;2023-04-08T06:47:23;7.80;99.90
43671;DHT22;29267;50.906;7.248;2023-04-08T06:49:48;7.70;99.90
43671;DHT22;29267;50.906;7.248;2023-04-08T06:52:14;7.80;99.90
43671;DHT22;29267;50.906;7.248;2023-04-08T06:54:40;7.80;99.90
43671;DHT22;29267;50.906;7.248;2023-04-08T06:57:05;7.50;99.90
43671;DHT22;29267;50.906;7.248;2023-04-08T06:59:31;7.50;99.90
43671;DHT22;29267;50.906;7.248;2023-04-08T07:01:57;7.30;99.90
43671;DHT22;29267;50.906;7.248;2023-04-08T07:04:22;7.30;99.90
43671;DHT22;29267;50.906;7.248;2023-04-08T07:06:48;7.20;99.90
43671;DHT22;29267;50.906;7.248;2023-04-08T07:09:13;7.10;99.90
43671;DHT22;29267;50.906;7.248;2023-04-08T07:11:39;7.30;99.90
43671;DHT22;29267;50.906;7.248;2023-04-08T07:14:04;7.40;99.90
43671;DHT22;29267;50.906;7.248;2023-04-08T07:16:30;7.50;99.90
43671;DHT22;29267;50.906;7.248;2023-04-08T07:18:56;7.60;99.90
43671;DHT22;29267;50.906;7.248;2023-04-08T07:21:22;7.60;99.90
43671;DHT22;29267;50.906;7.248;2023-04-08T07:23:47;7.80;99.90
43671;DHT22;29267;50.906;7.248;2023-04-08T07:26:13;7.90;99.90
43671;DHT22;29267;50.906;7.248;2023-04-08T07:28:39;8.00;99.90
43671;DHT22;29267;50.906;7.248;2023-04-08T07:31:15;8.10;99.90
43671;DHT22;29267;50.906;7.248;2023-04-08T07:33:42;8.00;99.90
43671;DHT22;29267;50.906;7.248;2023-04-08T07:36:09;7.90;99.90
43671;DHT22;29267;50.906;7.248;2023-04-08T07:38:35;7.90;99.90
43671;DHT22;29267;50.906;7.248;2023-04-08T07:41:00;7.90;99.90
43671;DHT22;29267;50.906;7.248;2023-04-08T07:43:26;8.10;99.90
43671;DHT22;29267;50.906;7.248;2023-04-08T07:45:52;8.20;99.90
43671;DHT22;29267;50.906;7.248;2023-04-08T07:48:17;8.20;99.90
43671;DHT22;29267;50.906;7.248;2023-04-08T07:50:43;8.00;99.90
43671;DHT22;29267;50.906;7.248;2023-04-08T07:53:10;8.00;99.90
43671;DHT22;29267;50.906;7.248;2023-04-08T07:55:35;8.10;99.90
43671;DHT22;29267;50.906;7.248;2023-04-08T07:58:01;8.10;99.90
43671;DHT22;29267;50.906;7.248;2023-04-08T08:00:27;8.10;99.90
43671;DHT22;29267;50.906;7.248;2023-04-08T08:02:54;8.20;99.90
43671;DHT22;29267;50.906;7.248;2023-04-08T08:05:20;8.10;99.90
43671;DHT22;29267;50.906;7.248;2023-04-08T08:07:46;8.30;99.90
43671;DHT22;29267;50.906;7.248;2023-04-08T08:10:11;8.20;99.90
43671;DHT22;29267;50.906;7.248;2023-04-08T08:12:37;8.40;99.90
43671;DHT22;29267;50.906;7.248;2023-04-08T08:15:03;8.60;99.90
43671;DHT22;29267;50.906;7.248;2023-04-08T08:17:28;8.70;99.90
43671;DHT22;29267;50.906;7.248;2023-04-08T08:19:58;8.70;99.90
43671;DHT22;29267;50.906;7.248;2023-04-08T08:22:23;8.60;99.90
43671;DHT22;29267;50.906;7.248;2023-04-08T08:24:57;8.60;99.90
43671;DHT22;29267;50.906;7.248;2023-04-08T08:27:24;8.90;99.90
43671;DHT22;29267;50.906;7.248;2023-04-08T08:29:50;9.00;99.90
43671;DHT22;29267;50.906;7.248;2023-04-08T08:32:15;9.00;99.90
43671;DHT22;29267;50.906;7.248;2023-04-08T08:34:41;9.00;99.90
43671;DHT22;29267;50.906;7.248;2023-04-08T08:37:06;9.10;99.90
43671;DHT22;29267;50.906;7.248;2023-04-08T08:39:32;9.10;99.90
43671;DHT22;29267;50.906;7.248;2023-04-08T08:41:58;9.10;99.90
43671;DHT22;29267;50.906;7.248;2023-04-08T08:44:23;9.20;99.90
43671;DHT22;29267;50.906;7.248;2023-04-08T08:46:49;9.10;99.90
43671;DHT22;29267;50.906;7.248;2023-04-08T08:49:14;9.20;99.90
43671;DHT22;29267;50.906;7.248;2023-04-08T08:51:40;9.10;99.90
43671;DHT22;29267;50.906;7.248;2023-04-08T08:54:08;9.30;99.90
43671;DHT22;29267;50.906;7.248;2023-04-08T08:56:34;9.20;99.90
43671;DHT22;29267;50.906;7.248;2023-04-08T08:58:59;9.10;99.90
43671;DHT22;29267;50.906;7.248;2023-04-08T09:01:36;9.30;99.90
43671;DHT22;29267;50.906;7.248;2023-04-08T09:06:32;9.40;99.90
43671;DHT22;29267;50.906;7.248;2023-04-08T09:08:57;9.40;99.90
43671;DHT22;29267;50.906;7.248;2023-04-08T09:11:23;9.60;99.90
43671;DHT22;29267;50.906;7.248;2023-04-08T09:13:48;9.70;99.90
43671;DHT22;29267;50.906;7.248;2023-04-08T09:16:16;9.70;99.90
43671;DHT22;29267;50.906;7.248;2023-04-08T09:18:46;10.00;99.90
43671;DHT22;29267;50.906;7.248;2023-04-08T09:21:14;9.80;99.90
43671;DHT22;29267;50.906;7.248;2023-04-08T09:23:51;10.00;99.90
43671;DHT22;29267;50.906;7.248;2023-04-08T09:26:18;10.10;99.90
43671;DHT22;29267;50.906;7.248;2023-04-08T09:29:05;10.30;99.90
43671;DHT22;29267;50.906;7.248;2023-04-08T09:31:33;10.70;99.90
43671;DHT22;29267;50.906;7.248;2023-04-08T09:34:09;10.80;99.90
43671;DHT22;29267;50.906;7.248;2023-04-08T09:36:36;11.10;99.90
43671;DHT22;29267;50.906;7.248;2023-04-08T09:39:02;11.20;99.90
43671;DHT22;29267;50.906;7.248;2023-04-08T09:41:27;11.40;99.90
43671;DHT22;29267;50.906;7.248;2023-04-08T09:43:56;11.80;99.90
43671;DHT22;29267;50.906;7.248;2023-04-08T09:49:09;12.10;99.90
43671;DHT22;29267;50.906;7.248;2023-04-08T09:57:40;11.50;99.90
43671;DHT22;29267;50.906;7.248;2023-04-08T10:00:12;11.40;99.90
43671;DHT22;29267;50.906;7.248;2023-04-08T10:05:26;11.50;99.90
43671;DHT22;29267;50.906;7.248;2023-04-08T10:07:52;11.70;99.90
43671;DHT22;29267;50.906;7.248;2023-04-08T10:10:20;11.70;99.90
43671;DHT22;29267;50.906;7.248;2023-04-08T10:12:47;11.60;99.90
43671;DHT22;29267;50.906;7.248;2023-04-08T10:15:30;11.70;99.90
43671;DHT22;29267;50.906;7.248;2023-04-08T10:20:46;12.00;99.90
43671;DHT22;29267;50.906;7.248;2023-04-08T10:23:14;12.20;99.90
43671;DHT22;29267;50.906;7.248;2023-04-08T10:25:45;12.40;99.90
43671;DHT22;29267;50.906;7.248;2023-04-08T10:33:23;12.20;99.90
43671;DHT22;29267;50.906;7.248;2023-04-08T10:35:53;11.80;99.90
43671;DHT22;29267;50.906;7.248;2023-04-08T10:38:20;12.30;99.90
43671;DHT22;29267;50.906;7.248;2023-04-08T10:40:47;12.40;99.90
43671;DHT22;29267;50.906;7.248;2023-04-08T10:43:14;12.60;99.90
43671;DHT22;29267;50.906;7.248;2023-04-08T10:45:41;12.80;99.90
43671;DHT22;29267;50.906;7.248;2023-04-08T10:48:14;12.90;99.90
43671;DHT22;29267;50.906;7.248;2023-04-08T10:50:40;12.80;99.90
43671;DHT22;29267;50.906;7.248;2023-04-08T10:53:06;12.60;99.90
43671;DHT22;29267;50.906;7.248;2023-04-08T10:55:33;12.80;99.90
43671;DHT22;29267;50.906;7.248;2023-04-08T10:58:09;13.00;99.90
43671;DHT22;29267;50.906;7.248;2023-04-08T11:03:06;13.00;99.90
43671;DHT22;29267;50.906;7.248;2023-04-08T11:05:32;12.70;99.90
43671;DHT22;29267;50.906;7.248;2023-04-08T11:07:59;12.90;99.90
43671;DHT22;29267;50.906;7.248;2023-04-08T11:10:25;12.60;99.90
43671;DHT22;29267;50.906;7.248;2023-04-08T11:12:55;12.80;99.90
43671;DHT22;29267;50.906;7.248;2023-04-08T11:15:22;12.90;99.90
43671;DHT22;29267;50.906;7.248;2023-04-08T11:17:49;13.00;99.90
43671;DHT22;29267;50.906;7.248;2023-04-08T11:20:15;12.90;99.90
43671;DHT22;29267;50.906;7.248;2023-04-08T11:22:41;12.60;99.90
43671;DHT22;29267;50.906;7.248;2023-04-08T11:25:08;12.40;99.90
43671;DHT22;29267;50.906;7.248;2023-04-08T11:27:35;12.50;99.90
43671;DHT22;29267;50.906;7.248;2023-04-08T11:30:01;12.40;99.90
43671;DHT22;29267;50.906;7.248;2023-04-08T11:32:27;12.30;99.90
43671;DHT22;29267;50.906;7.248;2023-04-08T11:34:54;12.50;99.90
43671;DHT22;29267;50.906;7.248;2023-04-08T11:37:20;12.50;99.90
43671;DHT22;29267;50.906;7.248;2023-04-08T11:39:46;12.50;99.90
43671;DHT22;29267;50.906;7.248;2023-04-08T11:42:28;12.60;99.00
43671;DHT22;29267;50.906;7.248;2023-04-08T11:44:53;12.70;98.50
43671;DHT22;29267;50.906;7.248;2023-04-08T11:47:19;12.60;98.00
43671;DHT22;29267;50.906;7.248;2023-04-08T11:49:46;12.50;98.50
43671;DHT22;29267;50.906;7.248;2023-04-08T11:52:11;12.40;98.90
43671;DHT22;29267;50.906;7.248;2023-04-08T11:54:41;12.50;98.90
43671;DHT22;29267;50.906;7.248;2023-04-08T11:57:07;12.50;99.90
43671;DHT22;29267;50.906;7.248;2023-04-08T11:59:35;12.60;99.10
43671;DHT22;29267;50.906;7.248;2023-04-08T12:02:02;12.70;97.70
43671;DHT22;29267;50.906;7.248;2023-04-08T12:04:27;12.80;97.50
43671;DHT22;29267;50.906;7.248;2023-04-08T12:06:54;12.90;96.70
43671;DHT22;29267;50.906;7.248;2023-04-08T12:09:20;12.80;97.50
43671;DHT22;29267;50.906;7.248;2023-04-08T12:11:46;12.80;98.90
43671;DHT22;29267;50.906;7.248;2023-04-08T12:14:11;12.80;96.40
43671;DHT22;29267;50.906;7.248;2023-04-08T12:16:37;12.60;96.80
43671;DHT22;29267;50.906;7.248;2023-04-08T12:19:02;12.50;97.80
43671;DHT22;29267;50.906;7.248;2023-04-08T12:21:28;12.60;98.80
43671;DHT22;29267;50.906;7.248;2023-04-08T12:23:53;12.70;97.50
43671;DHT22;29267;50.906;7.248;2023-04-08T12:26:19;12.70;98.10
43671;DHT22;29267;50.906;7.248;2023-04-08T12:28:45;12.70;97.70
43671;DHT22;29267;50.906;7.248;2023-04-08T12:31:11;12.90;97.30
43671;DHT22;29267;50.906;7.248;2023-04-08T12:33:36;12.90;97.40
43671;DHT22;29267;50.906;7.248;2023-04-08T12:36:02;12.90;97.30
43671;DHT22;29267;50.906;7.248;2023-04-08T12:38:28;13.30;98.50
43671;DHT22;29267;50.906;7.248;2023-04-08T12:40:54;13.50;96.20
43671;DHT22;29267;50.906;7.248;2023-04-08T12:43:20;13.70;96.20
43671;DHT22;29267;50.906;7.248;2023-04-08T12:45:48;13.60;96.50
43671;DHT22;29267;50.906;7.248;2023-04-08T12:48:14;13.60;96.30
43671;DHT22;29267;50.906;7.248;2023-04-08T12:50:39;13.90;95.80
43671;DHT22;29267;50.906;7.248;2023-04-08T12:53:05;13.70;95.20
43671;DHT22;29267;50.906;7.248;2023-04-08T12:55:31;13.90;95.30
43671;DHT22;29267;50.906;7.248;2023-04-08T12:57:57;14.00;94.50
43671;DHT22;29267;50.906;7.248;2023-04-08T13:00:22;14.00;95.70
43671;DHT22;29267;50.906;7.248;2023-04-08T13:02:48;14.20;95.40
43671;DHT22;29267;50.906;7.248;2023-04-08T13:05:14;14.20;94.20
43671;DHT22;29267;50.906;7.248;2023-04-08T13:07:39;14.10;94.30
43671;DHT22;29267;50.906;7.248;2023-04-08T13:10:06;14.00;94.80
43671;DHT22;29267;50.906;7.248;2023-04-08T13:12:32;13.90;95.40
43671;DHT22;29267;50.906;7.248;2023-04-08T13:14:58;14.10;94.00
43671;DHT22;29267;50.906;7.248;2023-04-08T13:17:24;14.00;95.00
43671;DHT22;29267;50.906;7.248;2023-04-08T13:19:50;13.70;95.50
43671;DHT22;29267;50.906;7.248;2023-04-08T13:22:16;13.70;96.10
43671;DHT22;29267;50.906;7.248;2023-04-08T13:24:42;13.70;96.20
43671;DHT22;29267;50.906;7.248;2023-04-08T13:27:08;13.90;96.10
43671;DHT22;29267;50.906;7.248;2023-04-08T13:29:33;13.70;95.10
43671;DHT22;29267;50.906;7.248;2023-04-08T13:31:59;13.70;96.20
43671;DHT22;29267;50.906;7.248;2023-04-08T13:34:26;13.40;95.40
43671;DHT22;29267;50.906;7.248;2023-04-08T13:36:51;13.40;96.50
43671;DHT22;29267;50.906;7.248;2023-04-08T13:39:17;13.60;97.20
43671;DHT22;29267;50.906;7.248;2023-04-08T13:41:42;13.70;97.40
43671;DHT22;29267;50.906;7.248;2023-04-08T13:44:08;13.80;95.90
43671;DHT22;29267;50.906;7.248;2023-04-08T13:46:34;13.70;96.20
43671;DHT22;29267;50.906;7.248;2023-04-08T13:49:00;13.60;96.10
43671;DHT22;29267;50.906;7.248;2023-04-08T13:51:27;13.30;97.30
43671;DHT22;29267;50.906;7.248;2023-04-08T13:53:53;13.50;98.70
43671;DHT22;29267;50.906;7.248;2023-04-08T13:56:19;13.80;98.60
43671;DHT22;29267;50.906;7.248;2023-04-08T13:58:45;14.20;96.30
43671;DHT22;29267;50.906;7.248;2023-04-08T14:01:11;14.40;98.00
43671;DHT22;29267;50.906;7.248;2023-04-08T14:03:37;14.70;97.30
43671;DHT22;29267;50.906;7.248;2023-04-08T14:06:02;14.90;96.00
43671;DHT22;29267;50.906;7.248;2023-04-08T14:08:28;15.00;96.40
43671;DHT22;29267;50.906;7.248;2023-04-08T14:10:56;15.00;96.30
43671;DHT22;29267;50.906;7.248;2023-04-08T14:13:22;14.90;95.30
43671;DHT22;29267;50.906;7.248;2023-04-08T14:15:48;14.80;95.90
43671;DHT22;29267;50.906;7.248;2023-04-08T14:18:14;14.50;97.20
43671;DHT22;29267;50.906;7.248;2023-04-08T14:20:42;14.90;96.10
43671;DHT22;29267;50.906;7.248;2023-04-08T14:23:08;14.30;96.70
43671;DHT22;29267;50.906;7.248;2023-04-08T14:25:33;14.40;97.50
43671;DHT22;29267;50.906;7.248;2023-04-08T14:27:59;14.20;97.40
43671;DHT22;29267;50.906;7.248;2023-04-08T14:30:25;14.30;97.40
43671;DHT22;29267;50.906;7.248;2023-04-08T14:32:51;14.40;97.10
43671;DHT22;29267;50.906;7.248;2023-04-08T14:35:17;14.20;97.10
43671;DHT22;29267;50.906;7.248;2023-04-08T14:37:42;14.30;97.40
43671;DHT22;29267;50.906;7.248;2023-04-08T14:40:09;14.50;97.60
43671;DHT22;29267;50.906;7.248;2023-04-08T14:42:34;14.50;97.90
43671;DHT22;29267;50.906;7.248;2023-04-08T14:45:00;14.40;97.20
43671;DHT22;29267;50.906;7.248;2023-04-08T14:47:26;14.40;97.30
43671;DHT22;29267;50.906;7.248;2023-04-08T14:49:52;14.30;97.10
43671;DHT22;29267;50.906;7.248;2023-04-08T14:52:17;14.10;97.40
43671;DHT22;29267;50.906;7.248;2023-04-08T14:54:43;14.10;98.10
43671;DHT22;29267;50.906;7.248;2023-04-08T14:57:09;13.90;98.40
43671;DHT22;29267;50.906;7.248;2023-04-08T14:59:35;13.90;99.20
43671;DHT22;29267;50.906;7.248;2023-04-08T15:02:01;13.80;99.30
43671;DHT22;29267;50.906;7.248;2023-04-08T15:04:27;13.90;99.90
43671;DHT22;29267;50.906;7.248;2023-04-08T15:06:52;14.00;99.70
43671;DHT22;29267;50.906;7.248;2023-04-08T15:09:18;14.20;98.50
43671;DHT22;29267;50.906;7.248;2023-04-08T15:11:43;14.00;99.80
43671;DHT22;29267;50.906;7.248;2023-04-08T15:14:09;14.10;99.40
43671;DHT22;29267;50.906;7.248;2023-04-08T15:16:34;13.70;99.90
43671;DHT22;29267;50.906;7.248;2023-04-08T15:19:00;13.90;99.70
43671;DHT22;29267;50.906;7.248;2023-04-08T15:21:26;13.90;99.90
43671;DHT22;29267;50.906;7.248;2023-04-08T15:23:52;13.90;99.90
43671;DHT22;29267;50.906;7.248;2023-04-08T15:26:18;13.90;99.90
43671;DHT22;29267;50.906;7.248;2023-04-08T15:28:43;13.60;99.90
43671;DHT22;29267;50.906;7.248;2023-04-08T15:31:09;13.60;99.90
43671;DHT22;29267;50.906;7.248;2023-04-08T15:33:35;13.50;99.90
43671;DHT22;29267;50.906;7.248;2023-04-08T15:36:06;13.50;99.90
43671;DHT22;29267;50.906;7.248;2023-04-08T15:38:31;13.70;99.90
43671;DHT22;29267;50.906;7.248;2023-04-08T15:40:58;13.80;99.90
43671;DHT22;29267;50.906;7.248;2023-04-08T15:43:23;13.80;99.90
43671;DHT22;29267;50.906;7.248;2023-04-08T15:45:49;13.70;99.90
43671;DHT22;29267;50.906;7.248;2023-04-08T15:48:15;13.70;99.90
43671;DHT22;29267;50.906;7.248;2023-04-08T15:50:40;13.50;99.90
43671;DHT22;29267;50.906;7.248;2023-04-08T15:53:06;13.40;99.90
43671;DHT22;29267;50.906;7.248;2023-04-08T15:55:41;13.40;99.90
43671;DHT22;29267;50.906;7.248;2023-04-08T15:58:07;13.40;99.90
43671;DHT22;29267;50.906;7.248;2023-04-08T16:00:32;13.30;99.90
43671;DHT22;29267;50.906;7.248;2023-04-08T16:02:58;13.20;99.90